createdAt,value
2023-03-26T00:00:19.864Z,78.42
2023-03-26T00:01:24.552Z,78.67
2023-03-26T00:02:29.856Z,78.84
2023-03-26T00:03:37.462Z,78.37
2023-03-26T00:04:39.180Z,78.33
2023-03-26T00:05:41.166Z,78.48
2023-03-26T00:06:42.912Z,78.55
2023-03-26T00:07:44.639Z,79.62
2023-03-26T00:08:46.500Z,79.36
2023-03-26T00:09:48.606Z,79.85
2023-03-26T00:10:50.422Z,80.55
2023-03-26T00:11:52.180Z,80.55
2023-03-26T00:12:53.942Z,80.82
2023-03-26T00:13:59.793Z,80.46
2023-03-26T00:15:01.483Z,80.33
2023-03-26T00:16:03.967Z,80.06
2023-03-26T00:17:05.707Z,79.86
2023-03-26T00:18:09.346Z,79.65
2023-03-26T00:19:11.786Z,79.35
2023-03-26T00:20:14.203Z,79.01
2023-03-26T00:21:17.924Z,78.60
2023-03-26T00:22:19.672Z,78.36
2023-03-26T00:23:21.375Z,77.76
2023-03-26T00:24:29.571Z,77.62
2023-03-26T00:25:32.199Z,77.24
2023-03-26T00:26:35.621Z,76.83
2023-03-26T00:27:38.223Z,76.84
2023-03-26T00:28:42.267Z,76.92
2023-03-26T00:29:44.040Z,76.52
2023-03-26T00:30:46.082Z,76.28
2023-03-26T00:31:47.871Z,75.69
2023-03-26T00:32:53.473Z,75.30
2023-03-26T00:33:55.927Z,74.73
2023-03-26T00:34:58.260Z,74.13
2023-03-26T00:36:03.923Z,74.23
2023-03-26T00:37:06.140Z,73.99
2023-03-26T00:38:07.946Z,73.93
2023-03-26T00:39:10.243Z,74.02
2023-03-26T00:40:12.587Z,73.67
2023-03-26T00:41:22.815Z,73.95
2023-03-26T00:42:24.662Z,73.67
2023-03-26T00:43:26.652Z,73.26
2023-03-26T00:44:28.352Z,72.90
2023-03-26T00:45:30.079Z,72.70
2023-03-26T00:46:32.485Z,72.70
2023-03-26T00:47:34.803Z,72.22
2023-03-26T00:48:44.886Z,72.04
2023-03-26T00:49:48.935Z,71.93
2023-03-26T00:50:50.974Z,72.00
2023-03-26T00:51:53.181Z,71.80
2023-03-26T00:52:55.981Z,72.06
2023-03-26T00:53:58.586Z,71.97
2023-03-26T00:55:00.347Z,72.10
2023-03-26T00:56:02.051Z,72.34
2023-03-26T00:57:06.896Z,72.29
2023-03-26T00:58:12.456Z,72.42
2023-03-26T00:59:14.193Z,72.33
2023-03-26T01:00:19.082Z,72.62
2023-03-26T01:01:29.407Z,72.56
2023-03-26T01:02:33.010Z,72.91
2023-03-26T01:03:38.567Z,72.82
2023-03-26T01:04:40.692Z,72.60
2023-03-26T01:05:45.558Z,73.04
2023-03-26T01:06:47.294Z,72.86
2023-03-26T01:07:49.247Z,73.06
2023-03-26T01:08:53.004Z,72.99
2023-03-26T01:10:00.008Z,72.43
2023-03-26T01:11:07.495Z,72.26
2023-03-26T01:12:16.981Z,72.26
2023-03-26T01:13:24.465Z,72.30
2023-03-26T01:14:29.074Z,72.15
2023-03-26T01:15:30.882Z,72.00
2023-03-26T01:16:42.063Z,72.23
2023-03-26T01:17:43.678Z,72.00
2023-03-26T01:18:46.033Z,72.10
2023-03-26T01:20:13.170Z,72.07
2023-03-26T01:21:22.856Z,72.40
2023-03-26T01:22:27.389Z,72.57
2023-03-26T01:23:42.671Z,72.98
2023-03-26T01:24:46.328Z,73.50
2023-03-26T01:25:58.179Z,74.08
2023-03-26T01:27:20.934Z,74.64
2023-03-26T01:28:25.372Z,75.52
2023-03-26T01:29:32.512Z,75.36
2023-03-26T01:30:51.966Z,76.13
2023-03-26T01:32:11.993Z,76.57
2023-03-26T01:33:36.718Z,76.83
2023-03-26T01:34:54.310Z,76.91
2023-03-26T01:36:23.714Z,76.23
2023-03-26T01:37:52.698Z,74.61
2023-03-26T01:39:01.209Z,73.68
2023-03-26T01:40:10.146Z,72.98
2023-03-26T01:41:25.610Z,71.72
2023-03-26T01:42:36.134Z,70.79
2023-03-26T01:44:15.475Z,69.86
2023-03-26T01:45:23.924Z,69.63
2023-03-26T01:46:27.307Z,69.54
2023-03-26T01:47:30.058Z,69.14
2023-03-26T01:48:43.412Z,68.59
2023-03-26T01:49:45.142Z,67.89
2023-03-26T01:50:48.780Z,67.84
2023-03-26T01:51:51.356Z,66.14
2023-03-26T01:52:53.056Z,65.23
2023-03-26T01:53:56.691Z,64.33
2023-03-26T01:54:58.838Z,63.96
2023-03-26T01:56:41.750Z,63.61
2023-03-26T01:57:55.219Z,63.47
2023-03-26T01:59:17.889Z,63.66
2023-03-26T02:00:19.677Z,63.53
2023-03-26T02:01:45.200Z,63.28
2023-03-26T02:02:55.102Z,62.78
2023-03-26T02:04:30.871Z,63.48
2023-03-26T02:05:41.734Z,62.95
2023-03-26T02:07:08.045Z,62.99
2023-03-26T02:08:35.547Z,62.81
2023-03-26T02:09:45.981Z,62.82
2023-03-26T02:10:55.104Z,63.00
2023-03-26T02:11:58.516Z,62.81
2023-03-26T02:13:00.916Z,62.82
2023-03-26T02:14:05.549Z,62.58
2023-03-26T02:15:07.958Z,62.04
2023-03-26T02:16:16.610Z,61.85
2023-03-26T02:17:19.249Z,61.57
2023-03-26T02:18:24.332Z,62.24
2023-03-26T02:19:26.380Z,61.57
2023-03-26T02:20:31.159Z,61.42
2023-03-26T02:21:34.246Z,60.99
2023-03-26T02:22:41.110Z,59.99
2023-03-26T02:23:47.222Z,60.52
2023-03-26T02:24:49.026Z,59.77
2023-03-26T02:25:50.742Z,59.19
2023-03-26T02:26:52.571Z,58.84
2023-03-26T02:27:54.442Z,59.07
2023-03-26T02:28:56.892Z,59.14
2023-03-26T02:29:58.581Z,58.63
2023-03-26T02:31:02.059Z,58.71
2023-03-26T02:32:08.286Z,57.95
2023-03-26T02:33:10.083Z,58.45
2023-03-26T02:34:11.878Z,58.23
2023-03-26T02:35:13.889Z,58.58
2023-03-26T02:36:18.076Z,58.53
2023-03-26T02:37:20.013Z,57.81
2023-03-26T02:38:25.359Z,58.21
2023-03-26T02:39:27.808Z,57.81
2023-03-26T02:40:29.521Z,56.70
2023-03-26T02:41:31.217Z,56.92
2023-03-26T02:42:33.130Z,56.62
2023-03-26T02:43:34.824Z,56.60
2023-03-26T02:44:38.857Z,56.68
2023-03-26T02:45:40.880Z,56.64
2023-03-26T02:46:42.620Z,56.30
2023-03-26T02:47:46.269Z,55.49
2023-03-26T02:48:48.079Z,55.72
2023-03-26T02:49:49.775Z,55.31
2023-03-26T02:50:54.682Z,55.07
2023-03-26T02:51:57.112Z,55.37
2023-03-26T02:52:59.057Z,54.92
2023-03-26T02:54:04.312Z,54.81
2023-03-26T02:55:06.562Z,54.21
2023-03-26T02:56:09.521Z,54.01
2023-03-26T02:57:11.362Z,53.55
2023-03-26T02:58:17.404Z,53.57
2023-03-26T02:59:19.217Z,53.85
2023-03-26T03:00:22.849Z,53.83
2023-03-26T03:01:24.687Z,53.35
2023-03-26T03:02:29.475Z,53.47
2023-03-26T03:03:31.366Z,53.49
2023-03-26T03:04:33.097Z,53.23
2023-03-26T03:05:35.277Z,52.29
2023-03-26T03:06:38.551Z,52.90
2023-03-26T03:07:41.521Z,53.17
2023-03-26T03:08:46.113Z,53.10
2023-03-26T03:09:50.816Z,53.15
2023-03-26T03:11:07.181Z,52.63
2023-03-26T03:12:08.915Z,52.66
2023-03-26T03:13:10.681Z,52.39
2023-03-26T03:14:12.456Z,52.42
2023-03-26T03:15:14.291Z,52.06
2023-03-26T03:16:16.657Z,52.33
2023-03-26T03:17:20.888Z,52.26
2023-03-26T03:18:22.660Z,52.45
2023-03-26T03:19:24.368Z,52.34
2023-03-26T03:20:26.129Z,52.06
2023-03-26T03:21:29.271Z,52.10
2023-03-26T03:22:30.981Z,52.12
2023-03-26T03:23:32.734Z,51.92
2023-03-26T03:24:34.432Z,51.73
2023-03-26T03:25:36.311Z,51.87
2023-03-26T03:26:38.102Z,51.63
2023-03-26T03:27:41.397Z,52.16
2023-03-26T03:28:45.251Z,52.16
2023-03-26T03:29:47.070Z,52.12
2023-03-26T03:30:49.122Z,52.40
2023-03-26T03:31:51.006Z,52.20
2023-03-26T03:32:52.745Z,52.32
2023-03-26T03:33:54.488Z,52.13
2023-03-26T03:34:56.560Z,52.52
2023-03-26T03:35:59.498Z,52.61
2023-03-26T03:37:01.258Z,52.17
2023-03-26T03:38:02.957Z,52.41
2023-03-26T03:39:05.293Z,52.80
2023-03-26T03:40:10.886Z,52.49
2023-03-26T03:41:12.657Z,52.92
2023-03-26T03:42:14.407Z,52.47
2023-03-26T03:43:16.101Z,52.79
2023-03-26T03:44:17.850Z,53.12
2023-03-26T03:45:19.674Z,53.22
2023-03-26T03:46:21.453Z,53.44
2023-03-26T03:47:23.312Z,53.13
2023-03-26T03:48:25.013Z,53.00
2023-03-26T03:49:26.792Z,53.34
2023-03-26T03:50:28.535Z,53.49
2023-03-26T03:51:30.460Z,53.58
2023-03-26T03:52:32.531Z,53.98
2023-03-26T03:53:37.367Z,53.68
2023-03-26T03:54:39.243Z,53.99
2023-03-26T03:55:42.202Z,54.21
2023-03-26T03:56:45.817Z,54.62
2023-03-26T03:57:47.656Z,54.24
2023-03-26T03:58:49.378Z,54.30
2023-03-26T03:59:51.112Z,54.54
2023-03-26T04:00:53.194Z,54.51
2023-03-26T04:01:54.936Z,54.20
2023-03-26T04:02:58.046Z,54.13
2023-03-26T04:04:00.176Z,54.33
2023-03-26T04:05:03.549Z,54.03
2023-03-26T04:06:11.172Z,54.23
2023-03-26T04:07:12.927Z,54.01
2023-03-26T04:08:14.614Z,54.22
2023-03-26T04:09:16.340Z,54.26
2023-03-26T04:10:18.093Z,54.68
2023-03-26T04:11:19.850Z,54.56
2023-03-26T04:12:21.571Z,53.98
2023-03-26T04:13:23.339Z,54.50
2023-03-26T04:14:25.035Z,54.62
2023-03-26T04:15:26.768Z,54.64
2023-03-26T04:16:28.738Z,54.77
2023-03-26T04:17:32.857Z,54.62
2023-03-26T04:18:34.887Z,54.30
2023-03-26T04:19:37.537Z,54.58
2023-03-26T04:20:46.487Z,54.53
2023-03-26T04:21:49.616Z,54.68
2023-03-26T04:22:51.335Z,54.60
2023-03-26T04:23:54.378Z,54.67
2023-03-26T04:24:56.082Z,54.82
2023-03-26T04:26:04.235Z,54.73
2023-03-26T04:27:09.986Z,54.96
2023-03-26T06:06:17.876Z,46.72
2023-03-26T06:07:20.052Z,46.47
2023-03-26T06:08:22.376Z,47.17
2023-03-26T06:09:24.107Z,48.29
2023-03-26T06:10:26.110Z,48.51
2023-03-26T06:11:27.806Z,48.93
2023-03-26T06:12:29.619Z,48.40
2023-03-26T06:13:31.363Z,47.19
2023-03-26T06:14:33.298Z,47.70
2023-03-26T06:15:35.357Z,46.54
2023-03-26T06:16:37.241Z,46.74
2023-03-26T06:17:39.075Z,46.34
2023-03-26T06:18:41.193Z,45.80
2023-03-26T06:19:42.955Z,45.83
2023-03-26T06:20:44.761Z,46.91
2023-03-26T06:21:46.570Z,46.49
2023-03-26T06:22:48.306Z,45.42
2023-03-26T06:23:51.761Z,46.12
2023-03-26T06:24:53.703Z,46.56
2023-03-26T06:25:56.220Z,46.78
2023-03-26T06:26:57.965Z,46.08
2023-03-26T06:27:59.692Z,46.25
2023-03-26T06:29:01.532Z,45.99
2023-03-26T06:30:03.474Z,46.38
2023-03-26T06:31:05.704Z,45.96
2023-03-26T06:32:19.074Z,45.02
2023-03-26T06:33:24.144Z,44.84
2023-03-26T06:34:26.487Z,43.99
2023-03-26T06:35:30.004Z,44.18
2023-03-26T06:36:31.743Z,43.90
2023-03-26T06:37:33.467Z,43.14
2023-03-26T06:38:35.215Z,42.30
2023-03-26T06:39:37.044Z,42.08
2023-03-26T06:40:38.911Z,41.97
2023-03-26T06:41:41.314Z,41.76
2023-03-26T06:43:07.816Z,41.76
2023-03-26T06:44:04.734Z,40.89
2023-03-26T06:45:07.180Z,41.82
2023-03-26T06:46:09.376Z,40.91
2023-03-26T06:47:11.310Z,41.42
2023-03-26T06:48:13.021Z,41.19
2023-03-26T06:49:14.711Z,40.89
2023-03-26T06:50:16.523Z,41.82
2023-03-26T06:51:21.513Z,41.42
2023-03-26T06:52:23.248Z,41.44
2023-03-26T06:53:25.009Z,41.80
2023-03-26T06:54:27.665Z,41.42
2023-03-26T06:55:29.433Z,41.36
2023-03-26T06:56:31.215Z,40.70
2023-03-26T06:57:33.029Z,40.85
2023-03-26T06:58:35.262Z,40.94
2023-03-26T06:59:36.948Z,40.30
2023-03-26T07:00:39.206Z,41.18
2023-03-26T07:01:41.007Z,40.26
2023-03-26T07:02:42.791Z,40.01
2023-03-26T07:03:44.579Z,40.79
2023-03-26T07:04:46.376Z,39.93
2023-03-26T07:05:48.572Z,39.65
2023-03-26T07:06:50.357Z,38.28
2023-03-26T07:07:52.055Z,38.38
2023-03-26T07:08:55.585Z,38.23
2023-03-26T07:09:57.279Z,38.01
2023-03-26T07:10:59.017Z,38.80
2023-03-26T07:12:01.331Z,39.18
2023-03-26T07:13:03.092Z,37.75
2023-03-26T07:14:04.829Z,37.41
2023-03-26T07:15:08.408Z,38.24
2023-03-26T07:16:10.119Z,37.72
2023-03-26T07:17:11.856Z,38.03
2023-03-26T07:18:13.571Z,38.54
2023-03-26T07:19:15.305Z,37.55
2023-03-26T07:20:17.062Z,37.77
2023-03-26T07:21:19.970Z,37.89
2023-03-26T07:22:24.453Z,37.88
2023-03-26T07:23:26.506Z,36.88
2023-03-26T07:24:29.906Z,36.69
2023-03-26T07:25:32.120Z,36.83
2023-03-26T07:26:48.132Z,36.96
2023-03-26T07:27:55.547Z,36.72
2023-03-26T07:29:16.138Z,36.37
2023-03-26T07:30:25.441Z,36.40
2023-03-26T07:31:34.941Z,36.82
2023-03-26T07:32:52.767Z,35.73
2023-03-26T07:34:22.526Z,37.12
2023-03-26T07:35:32.666Z,36.05
2023-03-26T07:37:02.329Z,36.68
2023-03-26T07:38:23.336Z,35.32
2023-03-26T07:39:49.865Z,34.27
2023-03-26T07:41:01.340Z,34.03
2023-03-26T07:42:27.005Z,33.95
2023-03-26T07:43:48.356Z,34.22
2023-03-26T07:45:03.217Z,34.07
2023-03-26T07:46:05.741Z,33.69
2023-03-26T07:47:33.054Z,34.26
2023-03-26T07:48:44.010Z,34.59
2023-03-26T07:49:49.288Z,33.94
2023-03-26T07:50:51.446Z,33.84
2023-03-26T07:51:53.417Z,34.34
2023-03-26T07:52:55.540Z,33.50
2023-03-26T07:54:00.612Z,33.30
2023-03-26T07:55:03.613Z,32.54
2023-03-26T07:56:11.445Z,33.30
2023-03-26T07:57:28.571Z,33.23
2023-03-26T07:58:45.551Z,32.79
2023-03-26T07:59:59.798Z,33.27
2023-03-26T08:01:12.309Z,33.72
2023-03-26T08:02:32.803Z,33.34
2023-03-26T08:03:40.339Z,33.29
2023-03-26T08:05:10.622Z,32.60
2023-03-26T08:06:22.401Z,34.72
2023-03-26T08:07:27.149Z,33.76
2023-03-26T08:08:38.293Z,33.96
2023-03-26T08:09:53.833Z,33.89
2023-03-26T08:10:58.600Z,32.73
2023-03-26T08:12:42.739Z,32.24
2023-03-26T08:14:01.181Z,32.39
2023-03-26T08:15:21.902Z,32.00
2023-03-26T08:16:49.772Z,31.53
2023-03-26T08:18:04.165Z,32.49
2023-03-26T08:19:27.796Z,32.52
2023-03-26T08:20:41.678Z,32.89
2023-03-26T08:21:53.676Z,32.49
2023-03-26T08:23:17.210Z,31.92
2023-03-26T08:24:39.291Z,30.61
2023-03-26T08:25:44.769Z,30.30
2023-03-26T08:26:58.501Z,31.05
2023-03-26T08:28:06.492Z,31.80
2023-03-26T08:29:29.327Z,31.05
2023-03-26T08:30:31.525Z,30.28
2023-03-26T08:31:36.651Z,30.97
2023-03-26T08:32:38.876Z,31.89
2023-03-26T08:33:40.987Z,31.73
2023-03-26T08:34:42.712Z,31.23
2023-03-26T08:35:46.153Z,31.65
2023-03-26T08:36:47.920Z,31.69
2023-03-26T08:37:49.706Z,31.38
2023-03-26T08:38:51.870Z,31.34
2023-03-26T08:39:54.228Z,30.85
2023-03-26T08:41:01.703Z,32.02
2023-03-26T08:42:24.274Z,30.99
2023-03-26T08:44:13.893Z,31.76
2023-03-26T08:45:36.704Z,31.28
2023-03-26T08:46:38.380Z,30.21
2023-03-26T08:48:04.854Z,30.41
2023-03-26T08:49:29.588Z,29.93
2023-03-26T08:50:34.156Z,31.00
2023-03-26T08:52:11.996Z,31.80
2023-03-26T08:53:35.226Z,29.29
2023-03-26T08:55:13.930Z,28.70
2023-03-26T08:56:27.764Z,28.24
2023-03-26T08:57:47.989Z,29.46
2023-03-26T08:59:01.490Z,28.46
2023-03-26T09:00:34.354Z,28.14
2023-03-26T09:02:16.483Z,27.29
2023-03-26T09:03:21.346Z,29.27
2023-03-26T09:04:34.995Z,28.84
2023-03-26T09:05:56.648Z,28.04
2023-03-26T09:07:36.651Z,29.05
2023-03-26T09:08:53.813Z,30.33
2023-03-26T09:09:56.230Z,29.06
2023-03-26T09:11:13.009Z,29.58
2023-03-26T09:12:32.487Z,30.34
2023-03-26T09:13:52.521Z,28.66
2023-03-26T09:15:09.170Z,29.02
2023-03-26T09:16:30.209Z,29.61
2023-03-26T09:18:03.246Z,27.97
2023-03-26T09:19:07.799Z,27.37
2023-03-26T09:20:39.627Z,27.83
2023-03-26T09:22:06.036Z,27.30
2023-03-26T09:23:07.662Z,27.59
2023-03-26T09:24:46.887Z,25.03
2023-03-26T09:25:48.613Z,24.74
2023-03-26T09:27:15.965Z,24.04
2023-03-26T09:29:06.699Z,24.31
2023-03-26T09:30:26.785Z,23.78
2023-03-26T09:31:58.100Z,23.66
2023-03-26T09:33:09.938Z,23.95
2023-03-26T09:35:05.089Z,24.73
2023-03-26T09:36:29.845Z,24.13
2023-03-26T09:37:57.024Z,23.12
2023-03-26T09:39:00.972Z,22.96
2023-03-26T09:40:22.808Z,22.47
2023-03-26T09:41:37.418Z,22.98
2023-03-26T09:42:56.598Z,23.39
2023-03-26T09:44:20.050Z,22.92
2023-03-26T09:45:39.528Z,23.05
2023-03-26T09:47:00.460Z,24.68
2023-03-26T09:48:29.886Z,22.78
2023-03-26T09:49:53.056Z,23.68
2023-03-26T09:51:27.812Z,22.84
2023-03-26T09:52:35.457Z,22.96
2023-03-26T09:53:55.528Z,22.58
2023-03-26T09:54:57.171Z,23.25
2023-03-26T09:56:16.198Z,23.73
2023-03-26T09:57:43.858Z,23.95
2023-03-26T09:58:57.002Z,23.15
2023-03-26T10:00:37.740Z,22.88
2023-03-26T10:01:42.635Z,23.63
2023-03-26T10:03:13.877Z,24.08
2023-03-26T10:04:41.316Z,24.51
2023-03-26T10:05:55.400Z,23.84
2023-03-26T10:07:06.129Z,24.19
2023-03-26T10:08:23.624Z,24.23
2023-03-26T10:09:41.446Z,24.97
2023-03-26T10:11:16.886Z,23.13
2023-03-26T10:12:50.154Z,23.05
2023-03-26T10:14:21.614Z,22.06
2023-03-26T10:15:25.104Z,22.41
2023-03-26T10:16:48.790Z,23.18
2023-03-26T10:17:57.288Z,23.17
2023-03-26T10:19:24.526Z,23.08
2023-03-26T10:20:35.493Z,23.00
2023-03-26T10:21:37.072Z,22.73
2023-03-26T10:22:44.015Z,22.11
2023-03-26T10:24:07.120Z,22.15
2023-03-26T10:25:21.202Z,20.77
2023-03-26T10:26:37.251Z,20.81
2023-03-26T10:28:09.896Z,21.12
2023-03-26T10:29:38.871Z,21.38
2023-03-26T10:31:16.080Z,21.55
2023-03-26T10:32:34.594Z,21.20
2023-03-26T10:33:49.558Z,21.53
2023-03-26T10:35:08.245Z,21.02
2023-03-26T10:36:35.800Z,20.33
2023-03-26T10:37:46.460Z,20.61
2023-03-26T10:39:36.961Z,20.52
2023-03-26T10:40:43.225Z,20.73
2023-03-26T10:41:53.856Z,21.54
2023-03-26T10:43:29.951Z,21.52
2023-03-26T10:45:10.381Z,19.72
2023-03-26T10:46:20.770Z,20.03
2023-03-26T10:47:49.761Z,20.04
2023-03-26T10:49:28.753Z,18.73
2023-03-26T10:50:48.935Z,19.67
2023-03-26T10:51:53.779Z,21.12
2023-03-26T10:53:34.929Z,20.62
2023-03-26T10:54:46.651Z,20.26
2023-03-26T10:55:54.828Z,18.80
2023-03-26T10:56:57.552Z,19.10
2023-03-26T10:58:22.212Z,18.32
2023-03-26T10:59:27.547Z,18.82
2023-03-26T11:00:30.178Z,19.59
2023-03-26T11:01:51.538Z,19.20
2023-03-26T11:03:11.677Z,20.28
2023-03-26T11:04:19.480Z,19.93
2023-03-26T11:05:28.189Z,19.06
2023-03-26T11:06:35.683Z,19.86
2023-03-26T11:07:44.857Z,19.66
2023-03-26T11:09:20.008Z,19.07
2023-03-26T11:10:40.120Z,19.37
2023-03-26T11:11:55.440Z,19.88
2023-03-26T11:13:13.658Z,21.00
2023-03-26T11:14:34.761Z,20.36
2023-03-26T11:15:39.451Z,20.86
2023-03-26T11:17:14.807Z,20.87
2023-03-26T11:18:50.436Z,18.70
2023-03-26T11:20:23.199Z,19.89
2023-03-26T11:21:29.607Z,18.86
2023-03-26T11:23:00.800Z,19.61
2023-03-26T11:24:04.887Z,18.85
2023-03-26T11:25:38.485Z,18.49
2023-03-26T11:27:15.200Z,19.50
2023-03-26T11:28:37.459Z,18.15
2023-03-26T11:29:48.215Z,18.30
2023-03-26T11:30:55.965Z,17.22
2023-03-26T11:32:06.910Z,16.84
2023-03-26T11:33:13.976Z,17.52
2023-03-26T11:34:20.860Z,17.07
2023-03-26T11:35:39.369Z,18.09
2023-03-26T11:36:50.173Z,18.85
2023-03-26T11:37:59.186Z,18.18
2023-03-26T11:39:04.732Z,18.95
2023-03-26T11:40:15.825Z,18.24
2023-03-26T11:41:23.496Z,18.96
2023-03-26T11:42:25.854Z,17.92
2023-03-26T11:43:36.943Z,18.33
2023-03-26T11:44:42.989Z,18.75
2023-03-26T11:45:48.191Z,20.19
2023-03-26T11:46:58.915Z,20.44
2023-03-26T11:48:23.210Z,19.04
2023-03-26T11:49:26.527Z,19.61
2023-03-26T11:50:32.772Z,18.22
2023-03-26T11:51:36.873Z,18.63
2023-03-26T11:52:38.591Z,18.50
2023-03-26T11:53:40.349Z,19.45
2023-03-26T11:54:43.517Z,18.44
2023-03-26T11:55:58.082Z,18.92
2023-03-26T11:57:21.328Z,18.70
2023-03-26T11:58:52.173Z,18.21
2023-03-26T12:00:16.346Z,19.24
2023-03-26T12:01:30.069Z,18.84
2023-03-26T12:02:39.409Z,19.25
2023-03-26T12:03:43.362Z,20.25
2023-03-26T12:04:55.309Z,19.74
2023-03-26T12:05:59.640Z,19.88
2023-03-26T12:07:18.354Z,18.99
2023-03-26T12:08:31.328Z,18.78
2023-03-26T12:09:33.184Z,18.80
2023-03-26T12:10:38.220Z,19.26
2023-03-26T12:11:41.527Z,19.33
2023-03-26T12:12:46.730Z,19.46
2023-03-26T12:13:56.675Z,18.78
2023-03-26T12:14:59.366Z,19.10
2023-03-26T12:16:09.632Z,19.66
2023-03-26T12:17:31.416Z,19.48
2023-03-26T12:18:34.312Z,18.53
2023-03-26T12:19:39.873Z,19.58
2023-03-26T12:20:42.689Z,19.48
2023-03-26T12:21:50.034Z,19.32
2023-03-26T12:22:59.586Z,20.46
2023-03-26T12:24:04.898Z,19.82
2023-03-26T12:25:17.337Z,20.27
2023-03-26T12:26:21.420Z,20.04
2023-03-26T12:27:31.008Z,19.35
2023-03-26T12:28:32.985Z,19.35
2023-03-26T12:29:35.016Z,19.21
2023-03-26T12:30:39.615Z,18.38
2023-03-26T12:31:56.440Z,18.75
2023-03-26T12:33:04.004Z,19.15
2023-03-26T12:34:18.002Z,18.92
2023-03-26T12:35:29.411Z,19.67
2023-03-26T12:36:33.465Z,19.58
2023-03-26T12:37:43.308Z,20.78
2023-03-26T12:38:46.182Z,20.81
2023-03-26T12:40:26.064Z,18.99
2023-03-26T12:44:42.631Z,18.87
2023-03-26T12:44:46.779Z,17.21
2023-03-26T12:44:54.770Z,18.52
2023-03-26T12:47:46.232Z,17.88
2023-03-26T12:48:01.409Z,18.52
2023-03-26T12:48:55.219Z,19.53
2023-03-26T12:49:58.213Z,18.56
2023-03-26T12:51:32.603Z,18.30
2023-03-26T12:52:48.528Z,18.24
2023-03-26T12:53:50.170Z,18.62
2023-03-26T12:55:38.223Z,18.61
2023-03-26T12:56:47.715Z,19.48
2023-03-26T12:58:19.937Z,19.14
2023-03-26T13:00:07.776Z,18.71
2023-03-26T13:01:22.429Z,18.47
2023-03-26T13:02:48.626Z,18.70
2023-03-26T13:04:14.990Z,18.07
2023-03-26T13:05:31.055Z,18.67
2023-03-26T13:07:00.432Z,18.02
2023-03-26T13:08:41.714Z,18.20
2023-03-26T13:10:08.638Z,18.67
2023-03-26T13:11:47.222Z,18.86
2023-03-26T13:13:15.402Z,19.21
2023-03-26T13:14:32.364Z,18.67
2023-03-26T13:15:52.647Z,18.70
2023-03-26T13:17:22.987Z,18.35
2023-03-26T13:18:35.734Z,18.52
2023-03-26T13:19:44.172Z,18.46
2023-03-26T13:20:51.621Z,18.70
2023-03-26T13:22:02.561Z,18.89
2023-03-26T13:23:28.667Z,18.19
2023-03-26T13:24:42.430Z,18.15
2023-03-26T13:25:53.906Z,18.39
2023-03-26T13:27:14.914Z,18.40
2023-03-26T13:28:40.585Z,18.62
2023-03-26T13:30:02.600Z,18.91
2023-03-26T13:31:17.762Z,18.29
2023-03-26T13:32:31.233Z,18.33
2023-03-26T13:33:57.855Z,18.19
2023-03-26T13:35:13.609Z,18.19
2023-03-26T13:36:39.292Z,18.39
2023-03-26T13:37:53.504Z,18.21
2023-03-26T13:39:08.187Z,18.03
2023-03-26T13:40:25.433Z,18.09
2023-03-26T13:41:48.831Z,18.19
2023-03-26T13:42:59.249Z,17.81
2023-03-26T13:44:16.004Z,18.08
2023-03-26T13:45:33.963Z,18.64
2023-03-26T13:46:43.276Z,18.62
2023-03-26T13:47:49.966Z,18.57
2023-03-26T13:49:15.552Z,18.97
2023-03-26T13:50:39.436Z,18.91
2023-03-26T13:51:49.199Z,18.62
2023-03-26T13:52:58.648Z,19.28
2023-03-26T13:54:30.728Z,18.75
2023-03-26T13:55:38.692Z,19.17
2023-03-26T13:56:46.564Z,19.58
2023-03-26T13:58:08.857Z,18.80
2023-03-26T13:59:21.149Z,19.48
2023-03-26T14:00:33.974Z,19.58
2023-03-26T14:01:43.874Z,18.41
2023-03-26T14:02:53.416Z,18.19
2023-03-26T14:04:09.394Z,18.55
2023-03-26T14:05:20.459Z,17.99
2023-03-26T14:06:27.956Z,18.89
2023-03-26T14:07:55.015Z,18.10
2023-03-26T14:09:04.990Z,18.46
2023-03-26T14:10:19.970Z,18.29
2023-03-26T14:11:42.600Z,18.14
2023-03-26T14:13:10.889Z,18.16
2023-03-26T14:14:19.601Z,18.58
2023-03-26T14:15:37.725Z,18.87
2023-03-26T14:16:48.226Z,18.30
2023-03-26T14:18:06.190Z,18.52
2023-03-26T14:19:26.059Z,19.01
2023-03-26T14:20:58.616Z,18.77
2023-03-26T14:22:12.572Z,18.33
2023-03-26T14:23:37.507Z,18.69
2023-03-26T14:24:51.629Z,18.95
2023-03-26T14:26:10.635Z,19.48
2023-03-26T14:27:24.686Z,18.78
2023-03-26T14:28:41.581Z,18.46
2023-03-26T14:30:14.306Z,19.83
2023-03-26T14:31:30.589Z,19.47
2023-03-26T14:32:50.407Z,20.01
2023-03-26T14:34:29.341Z,18.83
2023-03-26T14:35:37.635Z,18.86
2023-03-26T14:36:59.222Z,18.08
2023-03-26T14:38:12.472Z,18.19
2023-03-26T14:39:23.710Z,18.60
2023-03-26T14:40:43.472Z,18.16
2023-03-26T14:42:12.420Z,18.42
2023-03-26T14:43:58.490Z,18.22
2023-03-26T14:45:00.401Z,18.37
2023-03-26T14:46:12.139Z,18.17
2023-03-26T14:47:17.080Z,17.90
2023-03-26T14:48:24.588Z,18.38
2023-03-26T14:49:53.744Z,18.30
2023-03-26T14:51:32.705Z,19.31
2023-03-26T14:52:49.768Z,18.43
2023-03-26T14:53:57.105Z,18.86
2023-03-26T14:55:03.823Z,18.56
2023-03-26T14:56:15.772Z,18.00
2023-03-26T14:57:26.431Z,18.11
2023-03-26T14:59:05.410Z,17.78
2023-03-26T15:00:42.905Z,17.91
2023-03-26T15:02:21.740Z,18.14
2023-03-26T15:04:06.751Z,18.24
2023-03-26T15:05:52.152Z,18.77
2023-03-26T15:07:02.867Z,19.08
2023-03-26T15:08:35.336Z,19.55
2023-03-26T15:09:58.106Z,19.21
2023-03-26T15:11:21.013Z,19.33
2023-03-26T15:13:03.631Z,19.53
2023-03-26T15:14:37.350Z,19.61
2023-03-26T15:15:41.808Z,19.77
2023-03-26T15:17:09.854Z,19.38
2023-03-26T15:18:23.496Z,19.62
2023-03-26T15:19:49.695Z,20.08
2023-03-26T15:21:29.050Z,19.94
2023-03-26T15:23:07.903Z,19.91
2023-03-26T15:24:53.324Z,19.90
2023-03-26T15:26:31.107Z,19.95
2023-03-26T15:28:12.306Z,19.45
2023-03-26T15:29:35.616Z,20.33
2023-03-26T15:31:06.742Z,20.36
2023-03-26T15:32:44.608Z,20.33
2023-03-26T15:34:04.550Z,20.96
2023-03-26T15:35:09.903Z,20.66
2023-03-26T15:36:32.786Z,20.26
2023-03-26T15:37:46.575Z,20.62
2023-03-26T15:38:57.098Z,20.44
2023-03-26T15:40:15.110Z,19.73
2023-03-26T15:41:32.099Z,20.01
2023-03-26T15:42:44.810Z,20.47
2023-03-26T15:45:35.995Z,20.86
2023-03-26T15:46:37.715Z,21.21
2023-03-26T15:48:04.991Z,21.50
2023-03-26T15:49:24.950Z,21.31
2023-03-26T15:50:29.622Z,21.34
2023-03-26T15:51:57.625Z,21.29
2023-03-26T15:53:33.745Z,21.77
2023-03-26T15:54:52.272Z,21.63
2023-03-26T15:56:31.338Z,21.36
2023-03-26T15:58:02.134Z,21.96
2023-03-26T15:59:16.636Z,22.18
2023-03-26T16:00:23.224Z,22.43
2023-03-26T16:02:05.150Z,22.01
2023-03-26T16:03:15.752Z,22.12
2023-03-26T16:04:50.685Z,22.39
2023-03-26T16:06:14.253Z,22.65
2023-03-26T16:07:29.134Z,22.77
2023-03-26T16:08:39.160Z,22.25
2023-03-26T16:10:00.926Z,22.51
2023-03-26T16:11:08.152Z,22.91
2023-03-26T16:12:12.896Z,22.59
2023-03-26T16:13:18.310Z,22.52
2023-03-26T16:14:25.782Z,22.51
2023-03-26T16:15:29.730Z,23.33
2023-03-26T16:16:49.886Z,23.19
2023-03-26T16:18:11.748Z,22.89
2023-03-26T16:19:19.571Z,23.32
2023-03-26T16:20:33.294Z,23.55
2023-03-26T16:21:43.439Z,23.63
2023-03-26T16:22:56.627Z,23.73
2023-03-26T16:24:07.535Z,23.47
2023-03-26T16:25:29.107Z,23.11
2023-03-26T16:26:55.598Z,23.74
2023-03-26T16:28:26.573Z,23.60
2023-03-26T16:29:30.590Z,23.62
2023-03-26T16:30:33.667Z,23.90
2023-03-26T16:31:38.120Z,23.39
2023-03-26T16:32:46.614Z,23.52
2023-03-26T16:34:09.046Z,23.51
2023-03-26T16:35:13.946Z,23.75
2023-03-26T16:36:42.292Z,23.74
2023-03-26T16:37:50.722Z,23.80
2023-03-26T16:39:05.105Z,23.99
2023-03-26T16:40:22.583Z,24.58
2023-03-26T16:41:27.994Z,23.78
2023-03-26T16:42:42.246Z,24.35
2023-03-26T16:43:56.078Z,24.44
2023-03-26T16:45:17.922Z,24.26
2023-03-26T16:46:33.336Z,24.64
2023-03-26T16:47:47.160Z,24.42
2023-03-26T16:49:18.115Z,24.90
2023-03-26T16:50:42.949Z,24.92
2023-03-26T16:52:23.420Z,25.18
2023-03-26T16:53:41.812Z,25.06
2023-03-26T16:56:23.597Z,25.01
2023-03-26T16:57:41.458Z,25.19
2023-03-26T16:59:07.216Z,25.39
2023-03-26T17:00:30.711Z,25.57
2023-03-26T17:01:46.596Z,25.61
2023-03-26T17:03:24.357Z,25.68
2023-03-26T17:04:30.598Z,26.00
2023-03-26T17:05:51.195Z,26.21
2023-03-26T17:07:14.679Z,25.87
2023-03-26T17:08:36.520Z,25.99
2023-03-26T17:10:09.016Z,26.27
2023-03-26T17:11:19.398Z,26.45